createdAt,value
2017-12-28T00:00:46.533Z,100.00
2017-12-28T00:01:51.579Z,100.00
2017-12-28T00:02:56.194Z,100.00
2017-12-28T00:04:00.940Z,100.00
2017-12-28T00:05:05.629Z,100.00
2017-12-28T00:06:10.752Z,100.00
2017-12-28T00:07:15.377Z,100.00
2017-12-28T00:08:21.187Z,100.00
2017-12-28T00:09:25.893Z,100.00
2017-12-28T00:10:30.626Z,100.00
2017-12-28T00:11:35.381Z,100.00
2017-12-28T00:12:40.555Z,100.00
2017-12-28T00:13:45.416Z,100.00
2017-12-28T00:14:50.183Z,100.00
2017-12-28T00:15:55.145Z,100.00
2017-12-28T00:17:00.246Z,100.00
2017-12-28T00:18:05.022Z,100.00
2017-12-28T00:19:11.153Z,100.00
2017-12-28T00:20:16.007Z,100.00
2017-12-28T00:21:20.891Z,100.00
2017-12-28T00:22:25.590Z,100.00
2017-12-28T00:23:32.338Z,100.00
2017-12-28T00:24:37.862Z,100.00
2017-12-28T00:25:43.632Z,100.00
2017-12-28T00:26:48.769Z,100.00
2017-12-28T00:27:55.334Z,100.00
2017-12-28T00:29:01.250Z,100.00
2017-12-28T00:30:06.869Z,100.00
2017-12-28T00:31:11.743Z,100.00
2017-12-28T00:32:16.855Z,100.00
2017-12-28T00:33:22.647Z,100.00
2017-12-28T00:34:29.045Z,100.00
2017-12-28T00:35:33.800Z,100.00
2017-12-28T00:36:38.684Z,100.00
2017-12-28T00:37:44.636Z,100.00
2017-12-28T00:38:49.883Z,100.00
2017-12-28T00:39:55.431Z,100.00
2017-12-28T00:41:00.122Z,100.00
2017-12-28T00:42:05.054Z,100.00
2017-12-28T00:43:09.823Z,100.00
2017-12-28T00:44:14.893Z,100.00
2017-12-28T00:45:20.025Z,100.00
2017-12-28T00:46:24.776Z,100.00
2017-12-28T00:47:29.623Z,100.00
2017-12-28T00:48:35.948Z,100.00
2017-12-28T00:49:43.461Z,100.00
2017-12-28T00:50:48.129Z,100.00
2017-12-28T00:51:53.329Z,100.00
2017-12-28T00:52:58.056Z,100.00
2017-12-28T00:54:02.779Z,100.00
2017-12-28T00:55:07.616Z,100.00
2017-12-28T00:56:12.371Z,100.00
2017-12-28T00:57:17.179Z,100.00
2017-12-28T00:58:22.412Z,100.00
2017-12-28T00:59:27.314Z,100.00
2017-12-28T01:00:33.000Z,100.00
2017-12-28T01:01:39.583Z,100.00
2017-12-28T01:02:44.396Z,100.00
2017-12-28T01:03:49.221Z,100.00
2017-12-28T01:04:54.523Z,100.00
2017-12-28T01:06:00.164Z,100.00
2017-12-28T01:07:04.824Z,100.00
2017-12-28T01:08:09.389Z,100.00
2017-12-28T01:09:14.053Z,100.00
2017-12-28T01:10:18.704Z,100.00
2017-12-28T01:11:23.748Z,100.00
2017-12-28T01:12:28.384Z,100.00
2017-12-28T01:13:33.174Z,100.00
2017-12-28T01:14:38.179Z,100.00
2017-12-28T01:15:42.989Z,100.00
2017-12-28T01:16:47.889Z,100.00
2017-12-28T01:17:53.121Z,100.00
2017-12-28T01:18:58.072Z,100.00
2017-12-28T01:20:02.855Z,100.00
2017-12-28T01:21:07.592Z,100.00
2017-12-28T01:22:12.828Z,100.00
2017-12-28T01:23:17.505Z,100.00
2017-12-28T01:24:22.559Z,100.00
2017-12-28T01:25:27.365Z,100.00
2017-12-28T01:26:32.095Z,100.00
2017-12-28T01:27:36.804Z,100.00
2017-12-28T01:28:43.761Z,100.00
2017-12-28T01:29:48.344Z,100.00
2017-12-28T01:30:53.334Z,100.00
2017-12-28T01:31:58.456Z,100.00
2017-12-28T01:33:03.161Z,100.00
2017-12-28T01:34:07.923Z,100.00
2017-12-28T01:35:12.710Z,100.00
2017-12-28T01:36:17.604Z,100.00
2017-12-28T01:37:22.705Z,100.00
2017-12-28T01:38:27.481Z,100.00
2017-12-28T01:39:32.235Z,100.00
2017-12-28T01:40:36.995Z,100.00
2017-12-28T01:41:41.830Z,100.00
2017-12-28T01:42:46.509Z,100.00
2017-12-28T01:43:51.526Z,100.00
2017-12-28T01:44:56.389Z,100.00
2017-12-28T01:46:01.824Z,100.00
2017-12-28T01:47:06.632Z,100.00
2017-12-28T01:48:11.417Z,100.00
2017-12-28T01:49:16.188Z,100.00
2017-12-28T01:50:21.419Z,100.00
2017-12-28T01:51:26.179Z,100.00
2017-12-28T01:52:31.042Z,100.00
2017-12-28T01:53:35.933Z,100.00
2017-12-28T01:54:40.753Z,100.00
2017-12-28T01:55:45.537Z,100.00
2017-12-28T01:56:50.673Z,100.00
2017-12-28T01:57:55.456Z,100.00
2017-12-28T01:59:00.318Z,100.00
2017-12-28T02:00:05.330Z,100.00
2017-12-28T02:01:10.127Z,100.00
2017-12-28T02:02:15.005Z,100.00
2017-12-28T02:03:20.256Z,100.00
2017-12-28T02:04:24.888Z,100.00
2017-12-28T02:05:30.455Z,100.00
2017-12-28T02:06:35.091Z,100.00
2017-12-28T02:07:39.808Z,100.00
2017-12-28T02:08:44.615Z,100.00
2017-12-28T02:09:49.697Z,100.00
2017-12-28T02:10:54.483Z,100.00
2017-12-28T02:11:59.265Z,100.00
2017-12-28T02:13:04.492Z,100.00
2017-12-28T02:14:09.333Z,100.00
2017-12-28T02:15:14.141Z,100.00
2017-12-28T02:16:19.222Z,100.00
2017-12-28T02:17:23.996Z,100.00
2017-12-28T02:18:28.732Z,100.00
2017-12-28T02:19:33.457Z,100.00
2017-12-28T02:20:38.208Z,100.00
2017-12-28T02:21:42.871Z,100.00
2017-12-28T02:22:48.156Z,100.00
2017-12-28T02:23:53.665Z,100.00
2017-12-28T02:24:58.398Z,100.00
2017-12-28T02:26:03.792Z,100.00
2017-12-28T02:27:08.550Z,100.00
2017-12-28T02:28:13.284Z,100.00
2017-12-28T02:29:18.407Z,100.00
2017-12-28T02:30:23.087Z,100.00
2017-12-28T02:31:27.820Z,100.00
2017-12-28T02:32:33.622Z,100.00
2017-12-28T02:33:38.423Z,100.00
2017-12-28T02:34:43.180Z,100.00
2017-12-28T02:35:48.313Z,100.00
2017-12-28T02:36:52.935Z,100.00
2017-12-28T02:37:57.540Z,100.00
2017-12-28T02:39:02.189Z,99.97
2017-12-28T02:40:06.824Z,99.92
2017-12-28T02:41:11.569Z,99.87
2017-12-28T02:42:16.680Z,99.80
2017-12-28T02:43:21.377Z,99.72
2017-12-28T02:44:26.166Z,99.66
2017-12-28T02:45:31.289Z,99.59
2017-12-28T02:46:36.325Z,99.58
2017-12-28T02:47:40.963Z,99.58
2017-12-28T02:48:45.873Z,99.56
2017-12-28T02:49:50.458Z,99.56
2017-12-28T02:50:55.026Z,99.52
2017-12-28T02:51:59.648Z,99.58
2017-12-28T02:53:04.391Z,99.54
2017-12-28T02:54:09.148Z,99.60
2017-12-28T02:55:14.153Z,99.60
2017-12-28T02:56:18.923Z,99.62
2017-12-28T02:57:23.634Z,99.62
2017-12-28T02:58:28.153Z,99.63
2017-12-28T02:59:32.684Z,99.63
2017-12-28T03:00:37.242Z,99.66
2017-12-28T03:01:42.209Z,99.68
2017-12-28T03:02:46.784Z,99.64
2017-12-28T03:03:51.437Z,99.68
2017-12-28T03:04:56.039Z,99.70
2017-12-28T03:06:00.675Z,99.73
2017-12-28T03:07:05.290Z,99.75
2017-12-28T03:08:10.247Z,99.74
2017-12-28T03:09:15.000Z,99.68
2017-12-28T03:10:19.809Z,99.66
2017-12-28T03:11:25.401Z,99.65
2017-12-28T03:12:30.115Z,99.66
2017-12-28T03:13:34.882Z,99.64
2017-12-28T03:14:39.782Z,99.63
2017-12-28T03:15:44.388Z,99.68
2017-12-28T03:16:48.957Z,99.68
2017-12-28T03:17:53.555Z,99.68
2017-12-28T03:18:58.156Z,99.67
2017-12-28T03:20:02.750Z,99.64
2017-12-28T03:21:07.802Z,99.64
2017-12-28T03:22:12.651Z,99.61
2017-12-28T03:23:17.558Z,99.64
2017-12-28T03:24:22.323Z,99.60
2017-12-28T03:25:27.072Z,99.55
2017-12-28T03:26:31.924Z,99.45
2017-12-28T03:27:37.195Z,99.50
2017-12-28T03:28:41.919Z,99.50
2017-12-28T03:29:46.669Z,99.47
2017-12-28T03:30:52.309Z,99.47
2017-12-28T03:31:57.083Z,99.49
2017-12-28T03:33:02.026Z,99.46
2017-12-28T03:34:07.316Z,99.52
2017-12-28T03:35:12.099Z,99.51
2017-12-28T03:36:16.853Z,99.56
2017-12-28T03:37:21.724Z,99.57
2017-12-28T03:38:26.772Z,99.55
2017-12-28T03:39:31.529Z,99.57
2017-12-28T03:40:36.612Z,99.58
2017-12-28T03:41:41.350Z,99.53
2017-12-28T03:42:46.122Z,99.51
2017-12-28T03:43:50.881Z,99.49
2017-12-28T03:44:55.660Z,99.50
2017-12-28T03:46:01.267Z,99.47
2017-12-28T03:47:06.406Z,99.47
2017-12-28T03:48:11.888Z,99.44
2017-12-28T03:49:16.727Z,99.45
2017-12-28T03:50:21.493Z,99.41
2017-12-28T03:51:26.271Z,99.40
2017-12-28T03:52:30.913Z,99.36
2017-12-28T03:53:35.996Z,99.28
2017-12-28T03:54:40.646Z,99.22
2017-12-28T03:55:45.396Z,99.13
2017-12-28T03:56:50.030Z,99.05
2017-12-28T03:57:54.743Z,99.04
2017-12-28T03:58:59.340Z,99.00
2017-12-28T04:00:04.267Z,99.02
2017-12-28T04:01:09.005Z,99.02
2017-12-28T04:02:13.613Z,99.02
2017-12-28T04:03:18.219Z,99.03
2017-12-28T04:04:22.972Z,99.02
2017-12-28T04:05:27.630Z,98.99
2017-12-28T04:06:32.845Z,99.02
2017-12-28T04:07:37.518Z,99.06
2017-12-28T04:08:42.172Z,99.03
2017-12-28T04:09:46.911Z,99.12
2017-12-28T04:10:51.660Z,99.13
2017-12-28T04:11:56.447Z,99.13
2017-12-28T04:13:01.564Z,99.11
2017-12-28T04:14:06.493Z,99.05
2017-12-28T04:15:11.272Z,98.97
2017-12-28T04:16:16.044Z,98.91
2017-12-28T04:17:21.681Z,98.87
2017-12-28T04:18:26.417Z,98.86
2017-12-28T04:19:31.538Z,98.82
2017-12-28T04:20:36.284Z,98.81
2017-12-28T04:21:41.063Z,98.83
2017-12-28T04:22:45.824Z,98.77
2017-12-28T04:23:50.593Z,98.70
2017-12-28T04:24:55.179Z,98.67
2017-12-28T04:26:00.067Z,98.63
2017-12-28T04:27:04.657Z,98.62
2017-12-28T04:28:09.245Z,98.58
2017-12-28T04:29:13.942Z,98.53
2017-12-28T04:30:18.697Z,98.50
2017-12-28T04:31:23.532Z,98.47
2017-12-28T04:32:28.720Z,98.45
2017-12-28T04:33:33.437Z,98.47
2017-12-28T04:34:38.195Z,98.43
2017-12-28T04:35:42.980Z,98.36
2017-12-28T04:36:47.798Z,98.35
2017-12-28T04:37:52.564Z,98.31
2017-12-28T04:38:57.698Z,98.37
2017-12-28T04:40:02.403Z,98.38
2017-12-28T04:41:07.054Z,98.36
2017-12-28T04:42:11.728Z,98.44
2017-12-28T04:43:16.485Z,98.46
2017-12-28T04:44:21.304Z,98.45
2017-12-28T04:45:26.379Z,98.42
2017-12-28T04:46:31.233Z,98.47
2017-12-28T04:47:36.062Z,98.54
2017-12-28T04:48:41.531Z,98.62
2017-12-28T04:49:47.245Z,98.66
2017-12-28T04:50:52.164Z,98.77
2017-12-28T04:51:59.375Z,98.78
2017-12-28T04:53:04.111Z,98.88
2017-12-28T04:54:08.932Z,98.91
2017-12-28T04:55:13.679Z,98.87
2017-12-28T04:56:18.551Z,98.95
2017-12-28T04:57:23.169Z,98.91
2017-12-28T04:58:28.138Z,98.87
2017-12-28T04:59:32.794Z,98.86
2017-12-28T05:00:37.382Z,98.85
2017-12-28T05:01:41.982Z,98.87
2017-12-28T05:02:46.799Z,98.87
2017-12-28T05:03:51.569Z,98.91
2017-12-28T05:04:56.794Z,98.94
2017-12-28T05:06:01.521Z,98.96
2017-12-28T05:07:06.130Z,98.97
2017-12-28T05:08:10.629Z,98.92
2017-12-28T05:09:16.960Z,98.88
2017-12-28T05:10:21.611Z,98.83
2017-12-28T05:11:27.679Z,98.77
2017-12-28T05:12:32.368Z,98.74
2017-12-28T05:13:37.145Z,98.73
2017-12-28T05:14:41.814Z,98.68
2017-12-28T05:15:47.393Z,98.69
2017-12-28T05:16:52.092Z,98.64
2017-12-28T05:17:58.194Z,98.66
2017-12-28T05:19:02.893Z,98.65
2017-12-28T05:20:07.666Z,98.67
2017-12-28T05:21:12.949Z,98.65
2017-12-28T05:22:17.739Z,98.67
2017-12-28T05:23:22.578Z,98.67
2017-12-28T05:24:29.042Z,98.71
2017-12-28T05:25:33.794Z,98.72
2017-12-28T05:26:38.536Z,98.71
2017-12-28T05:27:43.285Z,98.70
2017-12-28T05:28:48.899Z,98.70
2017-12-28T05:29:53.646Z,98.67
2017-12-28T05:30:58.860Z,98.71
2017-12-28T05:32:03.606Z,98.74
2017-12-28T05:33:08.925Z,98.75
2017-12-28T05:34:13.693Z,98.69
2017-12-28T05:35:18.439Z,98.66
2017-12-28T05:36:23.206Z,98.71
2017-12-28T05:37:28.311Z,98.76
2017-12-28T05:38:33.066Z,98.73
2017-12-28T05:39:38.233Z,98.77
2017-12-28T05:40:43.436Z,98.77
2017-12-28T05:41:47.986Z,98.80
2017-12-28T05:42:52.737Z,98.84
2017-12-28T05:43:57.847Z,98.87
2017-12-28T05:45:02.552Z,98.95
2017-12-28T05:46:08.365Z,98.96
2017-12-28T05:47:13.155Z,98.95
2017-12-28T05:48:17.749Z,98.92
2017-12-28T05:49:22.338Z,98.93
2017-12-28T05:50:27.508Z,98.96
2017-12-28T05:51:32.179Z,98.97
2017-12-28T05:52:36.939Z,99.01
2017-12-28T05:53:41.604Z,98.98
2017-12-28T05:54:46.372Z,99.06
2017-12-28T05:55:51.027Z,99.03
2017-12-28T05:56:56.128Z,98.95
2017-12-28T05:58:00.729Z,98.93
2017-12-28T05:59:05.361Z,98.94
2017-12-28T06:00:09.983Z,98.91
2017-12-28T06:01:14.721Z,98.97
2017-12-28T06:02:20.185Z,98.99
2017-12-28T06:03:25.210Z,98.97
2017-12-28T06:04:29.986Z,98.98
2017-12-28T06:05:35.741Z,99.02
2017-12-28T06:06:41.112Z,99.02
2017-12-28T06:07:45.790Z,98.98
2017-12-28T06:08:50.495Z,99.00
2017-12-28T06:09:55.533Z,99.01
2017-12-28T06:11:00.291Z,99.02
2017-12-28T06:12:05.074Z,98.99
2017-12-28T06:13:09.795Z,98.99
2017-12-28T06:14:15.640Z,99.04
2017-12-28T06:15:20.742Z,99.01
2017-12-28T06:16:25.751Z,99.00
2017-12-28T06:17:31.245Z,98.99
2017-12-28T06:18:37.933Z,99.06
2017-12-28T06:19:42.580Z,99.02
2017-12-28T06:20:47.362Z,99.06
2017-12-28T06:21:52.366Z,99.09
2017-12-28T06:22:56.966Z,99.13
2017-12-28T06:24:01.928Z,99.08
2017-12-28T06:25:06.534Z,99.17
2017-12-28T06:26:11.141Z,99.22
2017-12-28T06:27:15.980Z,99.25
2017-12-28T06:28:21.213Z,99.24
2017-12-28T06:29:25.988Z,99.19
2017-12-28T06:30:30.832Z,99.24
2017-12-28T06:31:35.697Z,99.19
2017-12-28T06:32:40.511Z,99.24
2017-12-28T06:33:45.322Z,99.28
2017-12-28T06:34:50.424Z,99.33
2017-12-28T06:35:55.078Z,99.41
2017-12-28T06:36:59.900Z,99.66
2017-12-28T06:38:04.671Z,99.77
2017-12-28T06:39:09.381Z,99.95
2017-12-28T06:40:14.677Z,100.00
2017-12-28T06:41:19.779Z,100.00
2017-12-28T06:42:24.551Z,100.00
2017-12-28T06:43:29.408Z,100.00
2017-12-28T06:44:34.016Z,100.00
2017-12-28T06:45:38.656Z,100.00
2017-12-28T06:46:43.845Z,100.00
2017-12-28T06:47:48.827Z,100.00
2017-12-28T06:48:53.458Z,100.00
2017-12-28T06:49:58.246Z,100.00
2017-12-28T06:51:03.986Z,100.00
2017-12-28T06:52:08.750Z,100.00
2017-12-28T06:53:13.438Z,100.00
2017-12-28T06:54:18.409Z,100.00
2017-12-28T06:55:23.067Z,100.00
2017-12-28T06:56:27.718Z,100.00
2017-12-28T06:57:32.380Z,100.00
2017-12-28T06:58:37.062Z,100.00
2017-12-28T06:59:41.713Z,100.00
2017-12-28T07:00:46.664Z,100.00
2017-12-28T07:01:51.338Z,100.00
2017-12-28T07:02:57.027Z,100.00
2017-12-28T07:04:01.760Z,100.00
2017-12-28T07:05:06.564Z,100.00
2017-12-28T07:06:11.243Z,100.00
2017-12-28T07:07:16.509Z,100.00
2017-12-28T07:08:21.319Z,100.00
2017-12-28T07:09:26.071Z,100.00
2017-12-28T07:10:30.836Z,100.00
2017-12-28T07:11:35.561Z,100.00
2017-12-28T07:12:40.292Z,100.00
2017-12-28T07:13:47.389Z,100.00
2017-12-28T07:14:52.089Z,100.00
2017-12-28T07:15:56.815Z,100.00
2017-12-28T07:17:01.488Z,100.00
2017-12-28T07:18:06.170Z,100.00
2017-12-28T07:19:11.630Z,100.00
2017-12-28T07:20:17.684Z,100.00
2017-12-28T07:21:22.372Z,100.00
2017-12-28T07:22:27.040Z,100.00
2017-12-28T07:23:31.716Z,100.00
2017-12-28T07:24:36.415Z,100.00
2017-12-28T07:25:41.167Z,100.00
2017-12-28T07:26:46.198Z,100.00
2017-12-28T07:27:51.801Z,100.00
2017-12-28T07:28:56.490Z,100.00
2017-12-28T07:30:01.250Z,100.00
2017-12-28T07:31:05.983Z,100.00
2017-12-28T07:32:10.642Z,100.00
2017-12-28T07:33:15.685Z,100.00
2017-12-28T07:34:20.408Z,100.00
2017-12-28T07:35:25.112Z,100.00
2017-12-28T07:36:29.894Z,100.00
2017-12-28T07:37:34.549Z,100.00
2017-12-28T07:38:39.332Z,100.00
2017-12-28T07:39:44.298Z,100.00
2017-12-28T07:40:49.128Z,100.00
2017-12-28T07:41:53.858Z,100.00
2017-12-28T07:42:58.642Z,100.00
2017-12-28T07:44:03.374Z,100.00
2017-12-28T07:45:08.101Z,100.00
2017-12-28T07:46:13.100Z,100.00
2017-12-28T07:47:17.699Z,100.00
2017-12-28T07:48:22.630Z,100.00
2017-12-28T07:49:27.128Z,100.00
2017-12-28T07:50:31.728Z,100.00
2017-12-28T07:51:36.391Z,100.00
2017-12-28T07:52:41.325Z,100.00
2017-12-28T07:53:48.350Z,100.00
2017-12-28T07:54:53.047Z,100.00
2017-12-28T07:55:57.846Z,100.00
2017-12-28T07:57:02.565Z,100.00
2017-12-28T07:58:08.196Z,100.00
2017-12-28T07:59:13.330Z,100.00
2017-12-28T08:00:19.839Z,100.00
2017-12-28T08:01:24.594Z,100.00
2017-12-28T08:02:29.346Z,100.00
2017-12-28T08:03:34.210Z,100.00
2017-12-28T08:04:38.954Z,100.00
2017-12-28T08:05:44.171Z,100.00
2017-12-28T08:06:48.952Z,100.00
2017-12-28T08:07:53.714Z,100.00
2017-12-28T08:08:59.091Z,100.00
2017-12-28T08:10:04.005Z,100.00
2017-12-28T08:11:08.802Z,100.00
2017-12-28T08:12:13.885Z,100.00
2017-12-28T08:13:18.692Z,100.00
2017-12-28T08:14:23.824Z,100.00
2017-12-28T08:15:28.617Z,100.00
2017-12-28T08:16:33.423Z,100.00
2017-12-28T08:17:38.194Z,100.00
2017-12-28T08:18:43.247Z,100.00
2017-12-28T08:19:47.986Z,100.00
2017-12-28T08:20:52.852Z,100.00
2017-12-28T08:21:57.732Z,100.00
2017-12-28T08:23:02.609Z,100.00
2017-12-28T08:24:07.414Z,100.00
2017-12-28T08:25:12.478Z,100.00
2017-12-28T08:26:17.287Z,100.00
2017-12-28T08:27:22.054Z,100.00
2017-12-28T08:28:26.815Z,100.00
2017-12-28T08:29:31.648Z,100.00
2017-12-28T08:30:36.399Z,100.00
2017-12-28T08:31:41.469Z,100.00
2017-12-28T08:32:47.094Z,100.00
2017-12-28T08:33:51.747Z,100.00
2017-12-28T08:34:56.432Z,100.00
2017-12-28T08:36:01.150Z,100.00
2017-12-28T08:37:05.886Z,100.00
2017-12-28T08:38:10.986Z,100.00
2017-12-28T08:39:15.679Z,100.00
2017-12-28T08:40:20.258Z,100.00
2017-12-28T08:41:25.458Z,100.00
2017-12-28T08:42:30.062Z,100.00
2017-12-28T08:43:34.653Z,100.00
2017-12-28T08:44:40.180Z,100.00
2017-12-28T08:45:45.874Z,100.00
2017-12-28T08:46:50.582Z,100.00
2017-12-28T08:47:55.310Z,100.00
2017-12-28T08:49:00.092Z,100.00
2017-12-28T08:50:05.517Z,100.00
2017-12-28T08:51:10.581Z,100.00
2017-12-28T08:52:15.280Z,100.00
2017-12-28T08:53:19.982Z,100.00
2017-12-28T08:54:24.660Z,100.00
2017-12-28T08:55:29.424Z,100.00
2017-12-28T08:56:34.649Z,100.00
2017-12-28T08:57:39.712Z,100.00
2017-12-28T08:58:44.417Z,100.00
2017-12-28T08:59:49.231Z,100.00
2017-12-28T09:00:54.042Z,100.00
2017-12-28T09:01:58.800Z,100.00
2017-12-28T09:03:03.519Z,100.00
2017-12-28T09:04:08.533Z,100.00
2017-12-28T09:05:13.362Z,100.00
2017-12-28T09:06:18.206Z,100.00
2017-12-28T09:07:22.894Z,100.00
2017-12-28T09:08:27.675Z,100.00
2017-12-28T09:09:32.384Z,100.00
2017-12-28T09:10:37.538Z,100.00
2017-12-28T09:11:42.320Z,100.00
2017-12-28T09:12:47.078Z,100.00
2017-12-28T09:13:51.842Z,99.82
2017-12-28T09:14:57.523Z,99.62
2017-12-28T09:16:02.310Z,99.51
2017-12-28T09:17:08.661Z,99.44
2017-12-28T09:18:13.485Z,99.28
2017-12-28T09:19:18.322Z,99.03
2017-12-28T09:20:23.022Z,98.99
2017-12-28T09:21:28.090Z,98.87
2017-12-28T09:22:32.821Z,98.80
2017-12-28T09:23:37.819Z,98.73
2017-12-28T09:24:42.645Z,98.66
2017-12-28T09:25:48.068Z,98.52
2017-12-28T09:26:52.745Z,98.41
2017-12-28T09:27:58.061Z,98.17
2017-12-28T09:29:02.883Z,97.75
2017-12-28T09:30:07.955Z,97.46
2017-12-28T09:31:12.615Z,97.25
2017-12-28T09:32:18.222Z,96.95
2017-12-28T09:33:22.908Z,96.69
2017-12-28T09:34:27.591Z,96.19
2017-12-28T09:35:32.445Z,95.98
2017-12-28T09:36:37.453Z,95.81
2017-12-28T09:37:42.201Z,95.44
2017-12-28T09:38:46.868Z,95.21
2017-12-28T09:39:51.623Z,94.95
2017-12-28T09:40:56.245Z,94.92
2017-12-28T09:42:01.152Z,94.88
2017-12-28T09:43:06.011Z,95.09
2017-12-28T09:44:10.626Z,95.10
2017-12-28T09:45:16.027Z,95.04
2017-12-28T09:46:20.561Z,94.97
2017-12-28T09:47:25.106Z,94.89
2017-12-28T09:48:29.636Z,94.87
2017-12-28T09:49:34.438Z,94.81
2017-12-28T09:50:39.414Z,94.63
2017-12-28T09:51:44.145Z,94.51
2017-12-28T09:52:48.851Z,94.40
2017-12-28T09:53:53.549Z,94.28
2017-12-28T09:54:58.283Z,94.34
2017-12-28T09:56:03.343Z,94.49
2017-12-28T09:57:09.249Z,94.70
2017-12-28T09:58:14.109Z,94.86
2017-12-28T09:59:18.869Z,94.95
2017-12-28T10:00:23.412Z,94.85
2017-12-28T10:01:28.124Z,94.81
2017-12-28T10:02:33.249Z,94.87
2017-12-28T10:03:38.000Z,94.90
2017-12-28T10:04:42.693Z,94.83
2017-12-28T10:05:47.401Z,94.83
2017-12-28T10:06:52.637Z,94.77
2017-12-28T10:07:57.319Z,94.74
2017-12-28T10:09:02.440Z,94.70
2017-12-28T10:10:06.983Z,94.66
2017-12-28T10:11:11.719Z,94.48
2017-12-28T10:12:16.466Z,94.43
2017-12-28T10:13:21.311Z,94.52
2017-12-28T10:14:26.276Z,94.59
2017-12-28T10:15:31.306Z,94.69
2017-12-28T10:16:35.948Z,94.64
2017-12-28T10:17:40.567Z,94.65
2017-12-28T10:18:45.247Z,94.72
2017-12-28T10:19:49.829Z,94.78
2017-12-28T10:20:54.551Z,94.78
2017-12-28T10:21:59.728Z,94.81
2017-12-28T10:23:04.559Z,94.79
2017-12-28T10:24:09.248Z,94.88
2017-12-28T10:25:13.948Z,94.94
2017-12-28T10:26:18.566Z,95.07
2017-12-28T10:27:23.283Z,94.99
2017-12-28T10:28:28.469Z,94.94
2017-12-28T10:29:33.281Z,94.92
2017-12-28T10:30:37.990Z,94.98
2017-12-28T10:31:43.334Z,95.02
2017-12-28T10:32:48.080Z,95.21
2017-12-28T10:33:52.894Z,95.38
2017-12-28T10:34:58.029Z,95.57
2017-12-28T10:36:02.734Z,95.69
2017-12-28T10:37:07.572Z,95.93
2017-12-28T10:38:12.927Z,96.12
2017-12-28T10:39:17.673Z,96.28
2017-12-28T10:40:22.383Z,96.48
2017-12-28T10:41:27.383Z,96.63
2017-12-28T10:42:32.134Z,96.83
2017-12-28T10:43:36.688Z,96.84
2017-12-28T10:44:41.194Z,97.05
2017-12-28T10:45:45.679Z,97.09
2017-12-28T10:46:50.250Z,97.08
2017-12-28T10:47:55.157Z,97.13
2017-12-28T10:48:59.893Z,97.18
2017-12-28T10:50:04.604Z,97.14
2017-12-28T10:51:09.218Z,97.28
2017-12-28T10:52:13.883Z,97.34
2017-12-28T10:53:18.642Z,97.48
2017-12-28T10:54:23.657Z,97.22
2017-12-28T10:55:28.441Z,97.10
2017-12-28T10:56:33.134Z,96.91
2017-12-28T10:57:37.848Z,97.11
2017-12-28T10:58:42.620Z,97.07
2017-12-28T10:59:47.358Z,96.98
2017-12-28T11:00:53.076Z,97.09
2017-12-28T11:01:57.641Z,97.17
2017-12-28T11:03:02.301Z,97.16
2017-12-28T11:04:07.016Z,97.21
2017-12-28T11:05:11.721Z,97.33
2017-12-28T11:06:16.417Z,97.30
2017-12-28T11:07:21.588Z,97.27
2017-12-28T11:08:28.093Z,97.21
2017-12-28T11:09:32.916Z,97.27
2017-12-28T11:10:37.718Z,97.35
2017-12-28T11:11:42.481Z,97.47
2017-12-28T11:12:47.309Z,97.52
2017-12-28T11:13:53.044Z,97.62
2017-12-28T11:14:57.819Z,97.56
2017-12-28T11:16:02.573Z,97.51
2017-12-28T11:17:07.294Z,97.39
2017-12-28T11:18:12.193Z,97.30
2017-12-28T11:19:17.420Z,97.24
2017-12-28T11:20:22.324Z,97.17
2017-12-28T11:21:27.047Z,97.35
2017-12-28T11:22:31.800Z,97.43
2017-12-28T11:23:36.494Z,97.47
2017-12-28T11:24:41.229Z,97.45
2017-12-28T11:25:46.496Z,97.62
2017-12-28T11:26:51.220Z,97.59
2017-12-28T11:27:56.002Z,97.63
2017-12-28T11:29:00.664Z,97.53
2017-12-28T11:30:05.516Z,97.49
2017-12-28T11:31:10.524Z,97.57
2017-12-28T11:32:15.563Z,97.39
2017-12-28T11:33:21.075Z,97.19
2017-12-28T11:34:25.773Z,97.32
2017-12-28T11:35:30.476Z,97.47
2017-12-28T11:36:35.187Z,97.44
2017-12-28T11:37:39.876Z,97.44
2017-12-28T11:38:44.938Z,97.37
2017-12-28T11:39:49.661Z,97.34
2017-12-28T11:40:54.364Z,97.28
2017-12-28T11:41:59.208Z,97.03
2017-12-28T11:43:03.930Z,96.89
2017-12-28T11:44:08.616Z,96.93
2017-12-28T11:45:13.758Z,96.75
2017-12-28T11:46:19.144Z,96.68
2017-12-28T11:47:24.341Z,96.65
2017-12-28T11:48:32.763Z,96.54
2017-12-28T11:49:37.591Z,96.40
2017-12-28T11:50:42.409Z,96.27
2017-12-28T11:51:48.176Z,96.16
2017-12-28T11:52:56.928Z,95.93
2017-12-28T11:54:01.862Z,95.78
2017-12-28T11:55:07.339Z,95.63
2017-12-28T11:56:16.129Z,95.59
2017-12-28T11:57:24.682Z,95.53
2017-12-28T11:58:31.645Z,95.41
2017-12-28T11:59:36.517Z,95.32
2017-12-28T12:00:45.747Z,95.24
2017-12-28T12:01:54.467Z,95.24
2017-12-28T12:03:02.833Z,95.22
2017-12-28T12:04:09.555Z,95.15
2017-12-28T12:05:19.182Z,95.21
2017-12-28T12:06:27.822Z,95.00
2017-12-28T12:07:36.531Z,94.80
2017-12-28T12:08:45.274Z,94.63
2017-12-28T12:09:50.156Z,94.60
2017-12-28T12:10:55.286Z,94.67
2017-12-28T12:11:59.944Z,94.45
2017-12-28T12:13:04.687Z,94.31
2017-12-28T12:14:09.452Z,94.23
2017-12-28T12:15:15.469Z,94.11
2017-12-28T12:16:20.106Z,93.96
2017-12-28T12:17:24.857Z,93.84
2017-12-28T12:18:29.839Z,93.77
2017-12-28T12:19:34.435Z,93.63
2017-12-28T12:20:39.099Z,93.45
2017-12-28T12:21:44.190Z,93.46
2017-12-28T12:22:48.926Z,93.34
2017-12-28T12:23:53.706Z,93.33
2017-12-28T12:24:58.559Z,92.99
2017-12-28T12:26:03.346Z,92.63
2017-12-28T12:27:09.971Z,92.42
2017-12-28T12:28:15.318Z,92.18
2017-12-28T12:29:20.111Z,91.87
2017-12-28T12:30:24.961Z,91.41
2017-12-28T12:31:30.070Z,91.37
2017-12-28T12:32:34.993Z,91.05
2017-12-28T12:33:39.865Z,90.29
2017-12-28T12:34:44.953Z,89.57
2017-12-28T12:35:49.613Z,89.35
2017-12-28T12:36:54.358Z,89.06
2017-12-28T12:37:59.224Z,88.60
2017-12-28T12:39:04.058Z,88.37
2017-12-28T12:40:08.759Z,88.23
2017-12-28T12:41:13.485Z,88.14
2017-12-28T12:42:18.250Z,88.01
2017-12-28T12:43:22.984Z,87.81
2017-12-28T12:44:27.709Z,87.54
2017-12-28T12:45:32.467Z,87.42
2017-12-28T12:46:37.957Z,87.34
2017-12-28T12:47:42.756Z,87.28
2017-12-28T12:48:47.769Z,87.27
2017-12-28T12:49:52.624Z,87.18
2017-12-28T12:50:57.428Z,87.29
2017-12-28T12:52:02.190Z,87.26
2017-12-28T12:53:07.555Z,87.20
2017-12-28T12:54:12.226Z,87.34
2017-12-28T12:55:16.922Z,87.17
2017-12-28T12:56:21.681Z,87.04
2017-12-28T12:57:26.652Z,87.04
2017-12-28T12:58:31.443Z,86.99
2017-12-28T12:59:36.647Z,87.01
2017-12-28T13:00:41.391Z,86.92
2017-12-28T13:01:46.138Z,86.83
2017-12-28T13:02:50.949Z,86.77
2017-12-28T13:03:55.740Z,86.71
2017-12-28T13:05:00.591Z,86.51
2017-12-28T13:06:05.763Z,86.16
2017-12-28T13:07:11.159Z,85.89
2017-12-28T13:08:15.994Z,85.92
2017-12-28T13:09:20.830Z,85.80
2017-12-28T13:10:25.658Z,85.42
2017-12-28T13:11:30.442Z,85.34
2017-12-28T13:12:35.458Z,85.34
2017-12-28T13:13:40.211Z,85.22
2017-12-28T13:14:46.003Z,85.13
2017-12-28T13:15:50.778Z,84.99
2017-12-28T13:16:55.634Z,85.13
2017-12-28T13:18:00.625Z,85.32
2017-12-28T13:19:05.915Z,85.10
2017-12-28T13:20:10.747Z,84.73
2017-12-28T13:21:20.296Z,84.67
2017-12-28T13:22:25.844Z,84.56
2017-12-28T13:23:30.623Z,84.23
2017-12-28T13:24:36.220Z,83.84
2017-12-28T13:25:45.515Z,84.00
2017-12-28T13:26:53.302Z,84.23
2017-12-28T13:28:01.821Z,84.20
2017-12-28T13:29:06.961Z,84.30
2017-12-28T13:30:12.015Z,84.71
2017-12-28T13:31:16.625Z,84.88
2017-12-28T13:32:21.547Z,84.94
2017-12-28T13:33:26.272Z,84.95
2017-12-28T13:34:31.745Z,84.96
2017-12-28T13:35:36.400Z,85.22
2017-12-28T13:36:41.174Z,85.40
2017-12-28T13:37:45.763Z,85.37
2017-12-28T13:38:50.886Z,85.35
2017-12-28T13:39:55.653Z,85.42
2017-12-28T13:41:00.445Z,85.38
2017-12-28T13:42:05.121Z,85.54
2017-12-28T13:43:09.714Z,85.33
2017-12-28T13:44:14.391Z,85.08
2017-12-28T13:45:19.414Z,85.12
2017-12-28T13:46:24.065Z,85.32
2017-12-28T13:47:28.788Z,85.32